createdAt,value
2023-02-22T00:02:10.493Z,59.89
2023-02-22T00:04:42.255Z,59.70
2023-02-22T00:07:14.944Z,60.01
2023-02-22T00:09:47.167Z,60.22
2023-02-22T00:12:20.666Z,60.34
2023-02-22T00:14:52.379Z,59.86
2023-02-22T00:17:24.060Z,59.96
2023-02-22T00:19:55.730Z,60.45
2023-02-22T00:22:27.512Z,60.50
2023-02-22T00:24:59.344Z,60.29
2023-02-22T00:27:31.070Z,60.56
2023-02-22T00:30:09.469Z,60.46
2023-02-22T00:32:42.985Z,60.63
2023-02-22T00:35:16.194Z,60.70
2023-02-22T00:37:50.346Z,60.73
2023-02-22T00:40:24.500Z,60.86
2023-02-22T00:43:00.248Z,60.78
2023-02-22T00:45:34.734Z,60.51
2023-02-22T00:48:07.353Z,60.89
2023-02-22T00:50:39.282Z,60.68
2023-02-22T00:53:13.158Z,60.80
2023-02-22T00:55:44.995Z,61.18
2023-02-22T00:58:16.962Z,60.96
2023-02-22T01:00:48.938Z,61.07
2023-02-22T01:03:21.574Z,61.01
2023-02-22T01:05:54.666Z,61.06
2023-02-22T01:08:26.346Z,61.19
2023-02-22T01:10:58.084Z,60.95
2023-02-22T01:13:31.459Z,61.38
2023-02-22T01:16:08.361Z,61.15
2023-02-22T01:18:42.034Z,61.37
2023-02-22T01:21:13.744Z,61.08
2023-02-22T01:23:47.496Z,61.44
2023-02-22T01:26:19.374Z,61.60
2023-02-22T01:28:51.381Z,61.47
2023-02-22T01:31:24.178Z,61.68
2023-02-22T01:33:55.983Z,61.63
2023-02-22T01:36:27.770Z,61.96
2023-02-22T01:38:59.464Z,61.47
2023-02-22T01:41:32.947Z,61.67
2023-02-22T01:44:38.085Z,61.98
2023-02-22T01:47:09.901Z,61.94
2023-02-22T01:49:47.902Z,61.97
2023-02-22T01:52:21.495Z,62.31
2023-02-22T01:54:58.260Z,62.24
2023-02-22T01:57:34.808Z,62.36
2023-02-22T02:00:27.649Z,62.66
2023-02-22T02:03:03.147Z,63.14
2023-02-22T02:05:37.024Z,62.83
2023-02-22T02:08:20.364Z,63.36
2023-02-22T02:10:56.609Z,63.59
2023-02-22T02:13:28.527Z,63.29
2023-02-22T02:16:00.381Z,63.03
2023-02-22T02:18:33.881Z,63.44
2023-02-22T02:21:14.502Z,63.31
2023-02-22T02:23:46.285Z,63.40
2023-02-22T02:26:36.654Z,63.13
2023-02-22T02:29:17.044Z,63.35
2023-02-22T02:32:20.538Z,63.38
2023-02-22T02:35:15.338Z,63.37
2023-02-22T02:38:11.430Z,63.42
2023-02-22T02:41:02.722Z,63.25
2023-02-22T02:44:00.607Z,63.77
2023-02-22T02:46:38.003Z,64.29
2023-02-22T02:49:15.511Z,63.71
2023-02-22T02:51:53.918Z,64.07
2023-02-22T02:54:28.472Z,64.34
2023-02-22T02:57:02.887Z,64.01
2023-02-22T02:59:39.660Z,64.71
2023-02-22T03:02:53.086Z,64.68
2023-02-22T03:05:31.831Z,64.31
2023-02-22T03:08:24.958Z,64.60
2023-02-22T03:11:18.869Z,63.90
2023-02-22T03:14:13.190Z,64.19
2023-02-22T03:16:47.100Z,63.95
2023-02-22T03:19:37.238Z,64.26
2023-02-22T03:22:18.600Z,64.26
2023-02-22T03:25:08.076Z,64.11
2023-02-22T03:27:53.298Z,64.03
2023-02-22T03:30:47.629Z,64.51
2023-02-22T03:34:01.215Z,64.65
2023-02-22T03:36:45.237Z,64.52
2023-02-22T03:39:18.667Z,64.50
2023-02-22T03:41:54.188Z,64.36
2023-02-22T03:44:33.612Z,64.47
2023-02-22T03:47:12.920Z,64.52
2023-02-22T03:50:07.459Z,64.80
2023-02-22T03:52:41.861Z,64.26
2023-02-22T03:55:18.977Z,64.61
2023-02-22T03:57:55.188Z,64.69
2023-02-22T04:00:30.650Z,64.93
2023-02-22T04:03:02.973Z,64.79
2023-02-22T04:05:34.748Z,64.73
2023-02-22T04:08:07.052Z,64.92
2023-02-22T04:10:38.771Z,65.06
2023-02-22T04:13:11.936Z,65.43
2023-02-22T04:15:48.171Z,65.58
2023-02-22T04:18:20.047Z,65.39
2023-02-22T04:20:53.398Z,65.21
2023-02-22T04:23:43.591Z,65.56
2023-02-22T04:26:19.330Z,65.40
2023-02-22T04:28:56.560Z,65.73
2023-02-22T04:31:30.851Z,65.97
2023-02-22T04:34:04.303Z,65.75
2023-02-22T04:36:42.323Z,65.42
2023-02-22T04:39:15.071Z,65.77
2023-02-22T04:41:47.546Z,65.50
2023-02-22T04:44:19.507Z,65.49
2023-02-22T04:46:51.317Z,65.48
2023-02-22T04:49:23.178Z,66.02
2023-02-22T04:51:56.407Z,65.79
2023-02-22T04:54:35.831Z,66.21
2023-02-22T04:57:07.745Z,65.89
2023-02-22T04:59:40.699Z,66.08
2023-02-22T05:02:16.149Z,66.04
2023-02-22T05:04:47.940Z,66.00
2023-02-22T05:07:19.889Z,65.88
2023-02-22T05:09:51.757Z,66.30
2023-02-22T05:12:23.456Z,66.08
2023-02-22T05:14:55.174Z,66.18
2023-02-22T05:17:27.089Z,66.20
2023-02-22T05:19:58.789Z,66.11
2023-02-22T05:22:30.515Z,65.58
2023-02-22T05:25:03.235Z,66.26
2023-02-22T05:27:35.985Z,65.95
2023-02-22T05:30:09.276Z,66.10
2023-02-22T05:32:41.027Z,65.96
2023-02-22T05:35:13.819Z,66.29
2023-02-22T05:37:45.499Z,66.34
2023-02-22T05:40:23.199Z,66.17
2023-02-22T05:42:56.743Z,66.50
2023-02-22T05:45:29.545Z,66.25
2023-02-22T05:48:01.268Z,66.05
2023-02-22T05:50:35.041Z,66.01
2023-02-22T05:53:06.736Z,65.97
2023-02-22T05:55:38.542Z,66.03
2023-02-22T05:58:10.267Z,66.27
2023-02-22T06:00:42.204Z,66.43
2023-02-22T06:03:13.903Z,66.55
2023-02-22T06:05:47.709Z,66.10
2023-02-22T06:08:19.480Z,66.32
2023-02-22T06:10:51.140Z,66.62
2023-02-22T06:13:22.959Z,66.38
2023-02-22T06:15:54.696Z,65.96
2023-02-22T06:18:26.853Z,66.14
2023-02-22T06:20:59.783Z,66.16
2023-02-22T06:23:31.581Z,65.83
2023-02-22T06:26:03.284Z,65.95
2023-02-22T06:28:34.999Z,65.77
2023-02-22T06:31:06.794Z,66.30
2023-02-22T06:33:38.584Z,65.97
2023-02-22T06:36:10.565Z,66.34
2023-02-22T06:38:43.135Z,66.13
2023-02-22T06:41:15.837Z,65.85
2023-02-22T06:43:48.257Z,65.73
2023-02-22T06:46:21.155Z,65.99
2023-02-22T06:48:52.951Z,66.26
2023-02-22T06:51:24.822Z,66.14
2023-02-22T06:53:56.888Z,65.79
2023-02-22T06:56:28.545Z,65.88
2023-02-22T06:59:02.866Z,65.49
2023-02-22T07:01:34.749Z,65.39
2023-02-22T07:04:06.459Z,65.48
2023-02-22T07:06:38.278Z,65.39
2023-02-22T07:09:10.456Z,65.16
2023-02-22T07:11:42.471Z,65.04
2023-02-22T07:14:17.092Z,65.00
2023-02-22T07:16:48.789Z,64.95
2023-02-22T07:19:20.852Z,64.90
2023-02-22T07:21:59.051Z,64.69
2023-02-22T07:24:30.859Z,64.88
2023-02-22T07:27:02.755Z,64.36
2023-02-22T07:29:36.097Z,64.69
2023-02-22T07:32:07.827Z,64.49
2023-02-22T07:34:41.835Z,64.49
2023-02-22T07:37:13.555Z,64.58
2023-02-22T07:39:45.375Z,64.27
2023-02-22T07:42:17.031Z,64.03
2023-02-22T07:44:50.779Z,63.54
2023-02-22T07:47:22.453Z,63.37
2023-02-22T07:49:54.487Z,63.38
2023-02-22T07:52:26.131Z,63.33
2023-02-22T07:54:57.845Z,63.33
2023-02-22T07:57:29.571Z,63.06
2023-02-22T08:00:01.322Z,63.03
2023-02-22T08:02:35.584Z,62.90
2023-02-22T08:05:10.757Z,62.83
2023-02-22T08:07:43.310Z,62.32
2023-02-22T08:10:18.036Z,62.62
2023-02-22T08:12:49.990Z,62.63
2023-02-22T08:15:24.475Z,62.44
2023-02-22T08:17:57.564Z,62.42
2023-02-22T08:20:30.053Z,62.33
2023-02-22T08:23:02.133Z,62.20
2023-02-22T08:25:33.938Z,61.95
2023-02-22T08:28:08.682Z,62.01
2023-02-22T08:30:43.338Z,61.75
2023-02-22T08:33:16.897Z,61.33
2023-02-22T08:35:49.730Z,61.44
2023-02-22T08:38:28.553Z,61.80
2023-02-22T08:41:00.226Z,61.71
2023-02-22T08:43:31.924Z,61.79
2023-02-22T08:46:03.758Z,61.18
2023-02-22T08:48:35.488Z,60.91
2023-02-22T08:51:07.200Z,60.52
2023-02-22T08:53:38.967Z,60.40
2023-02-22T08:56:11.245Z,60.07
2023-02-22T08:58:42.925Z,59.98
2023-02-22T09:01:19.240Z,59.92
2023-02-22T09:03:53.675Z,59.70
2023-02-22T09:06:25.422Z,59.71
2023-02-22T09:08:57.076Z,59.31
2023-02-22T09:11:28.812Z,59.13
2023-02-22T09:14:00.542Z,59.32
2023-02-22T09:16:32.417Z,58.83
2023-02-22T09:19:04.254Z,58.66
2023-02-22T09:21:35.975Z,58.80
2023-02-22T09:24:10.900Z,58.03
2023-02-22T09:26:47.385Z,58.30
2023-02-22T09:29:23.444Z,58.60
2023-02-22T09:31:56.271Z,58.36
2023-02-22T09:34:29.678Z,58.29
2023-02-22T09:37:01.719Z,58.14
2023-02-22T09:39:37.628Z,58.05
2023-02-22T09:42:19.856Z,58.17
2023-02-22T09:45:12.841Z,57.90
2023-02-22T09:48:20.781Z,57.37
2023-02-22T09:50:59.055Z,57.89
2023-02-22T09:53:42.473Z,57.83
2023-02-22T09:56:20.139Z,57.83
2023-02-22T09:58:56.778Z,57.85
2023-02-22T10:01:39.092Z,57.99
2023-02-22T10:04:18.587Z,57.89
2023-02-22T10:06:56.122Z,57.69
2023-02-22T10:09:30.460Z,57.63
2023-02-22T10:12:09.133Z,56.92
2023-02-22T10:15:02.578Z,56.98
2023-02-22T10:18:00.704Z,57.34
2023-02-22T10:20:41.236Z,57.17
2023-02-22T10:23:19.386Z,57.20
2023-02-22T10:26:00.348Z,56.73
2023-02-22T10:28:40.054Z,56.46
2023-02-22T10:31:21.885Z,56.43
2023-02-22T10:33:59.923Z,56.22
2023-02-22T10:36:32.029Z,56.03
2023-02-22T10:39:28.250Z,56.23
2023-02-22T10:42:06.548Z,56.38
2023-02-22T10:44:40.542Z,56.34
2023-02-22T10:47:17.857Z,56.13
2023-02-22T10:50:00.897Z,56.57
2023-02-22T10:52:34.968Z,56.42
2023-02-22T10:55:15.640Z,55.70
2023-02-22T10:57:51.000Z,56.89
2023-02-22T11:00:40.183Z,56.34
2023-02-22T11:03:22.734Z,55.45
2023-02-22T11:05:54.388Z,54.68
2023-02-22T11:08:29.207Z,54.46
2023-02-22T11:11:04.832Z,54.38
2023-02-22T11:13:39.868Z,54.27
2023-02-22T11:16:32.386Z,52.98
2023-02-22T11:19:24.161Z,52.02
2023-02-22T11:22:04.987Z,52.32
2023-02-22T11:24:49.194Z,52.02
2023-02-22T11:27:47.236Z,51.90
2023-02-22T11:30:25.026Z,52.61
2023-02-22T11:33:01.016Z,53.16
2023-02-22T11:35:48.596Z,52.36
2023-02-22T11:38:24.026Z,51.87
2023-02-22T11:41:26.438Z,51.17
2023-02-22T11:44:23.701Z,50.89
2023-02-22T11:47:01.156Z,51.50
2023-02-22T11:49:38.909Z,51.25
2023-02-22T11:52:13.157Z,51.51
2023-02-22T11:54:47.443Z,51.92
2023-02-22T11:57:47.577Z,52.48
2023-02-22T12:00:39.492Z,52.37
2023-02-22T12:03:49.356Z,52.01
2023-02-22T12:06:40.469Z,52.68
2023-02-22T12:09:38.369Z,52.15
2023-02-22T12:12:27.536Z,52.07
2023-02-22T12:15:24.252Z,50.47
2023-02-22T12:18:15.608Z,51.71
2023-02-22T12:20:56.656Z,51.24
2023-02-22T12:23:40.763Z,51.41
2023-02-22T12:26:24.068Z,52.59
2023-02-22T12:29:01.254Z,52.66
2023-02-22T12:31:39.434Z,53.12
2023-02-22T12:34:30.566Z,53.07
2023-02-22T12:37:27.712Z,52.22
2023-02-22T12:40:08.506Z,52.53
2023-02-22T12:43:05.440Z,52.59
2023-02-22T12:45:43.471Z,52.82
2023-02-22T12:48:15.165Z,52.41
2023-02-22T12:50:49.204Z,52.61
2023-02-22T12:53:31.820Z,52.19
2023-02-22T12:56:42.987Z,51.90
2023-02-22T12:59:33.766Z,51.32
2023-02-22T13:02:18.549Z,51.38
2023-02-22T13:04:52.380Z,52.63
2023-02-22T13:07:42.945Z,51.93
2023-02-22T13:11:12.690Z,52.15
2023-02-22T13:14:11.345Z,51.60
2023-02-22T13:16:52.750Z,51.43
2023-02-22T13:19:48.255Z,53.69
2023-02-22T13:22:25.544Z,52.50
2023-02-22T13:25:09.709Z,52.19
2023-02-22T13:27:53.231Z,51.32
2023-02-22T13:30:47.797Z,51.67
2023-02-22T13:33:46.613Z,51.64
2023-02-22T13:36:35.803Z,51.63
2023-02-22T13:39:28.490Z,51.35
2023-02-22T13:42:09.271Z,51.44
2023-02-22T13:45:18.715Z,52.75
2023-02-22T13:48:11.767Z,53.55
2023-02-22T13:51:06.625Z,51.61
2023-02-22T13:53:50.061Z,52.29
2023-02-22T13:56:25.035Z,50.91
2023-02-22T13:59:02.497Z,51.14
2023-02-22T14:01:42.349Z,52.75
2023-02-22T14:04:29.114Z,51.60
2023-02-22T14:07:25.035Z,50.66
2023-02-22T14:09:59.103Z,52.96
2023-02-22T14:12:30.888Z,51.18
2023-02-22T14:15:28.230Z,51.03
2023-02-22T14:18:07.394Z,51.36
2023-02-22T14:20:40.408Z,52.70
2023-02-22T14:23:31.369Z,53.07
2023-02-22T14:26:23.254Z,53.22
2023-02-22T14:29:16.075Z,52.50
2023-02-22T14:31:49.986Z,52.01
2023-02-22T14:34:40.527Z,52.11
2023-02-22T14:37:20.744Z,53.43
2023-02-22T14:40:02.133Z,53.23
2023-02-22T14:42:38.246Z,53.02
2023-02-22T14:45:09.968Z,54.13
2023-02-22T14:48:01.116Z,53.46
2023-02-22T14:50:44.137Z,53.98
2023-02-22T14:53:40.545Z,55.05
2023-02-22T14:56:25.883Z,53.68
2023-02-22T14:59:25.217Z,54.26
2023-02-22T15:02:13.479Z,53.32
2023-02-22T15:04:55.901Z,55.15
2023-02-22T15:07:31.142Z,55.07
2023-02-22T15:10:43.146Z,54.86
2023-02-22T15:13:24.026Z,54.52
2023-02-22T15:16:02.828Z,54.90
2023-02-22T15:18:41.766Z,55.14
2023-02-22T15:21:20.679Z,55.28
2023-02-22T15:23:56.561Z,56.00
2023-02-22T15:26:35.910Z,55.84
2023-02-22T15:29:18.376Z,56.57
2023-02-22T15:31:52.773Z,56.42
2023-02-22T15:34:30.175Z,56.42
2023-02-22T15:37:19.920Z,56.89
2023-02-22T15:39:59.361Z,57.07
2023-02-22T15:42:31.358Z,57.48
2023-02-22T15:45:03.221Z,57.21
2023-02-22T15:47:34.977Z,57.23
2023-02-22T15:50:28.223Z,57.15
2023-02-22T15:53:07.757Z,57.12
2023-02-22T15:55:47.177Z,57.68
2023-02-22T15:58:18.862Z,57.98
2023-02-22T16:01:00.759Z,58.16
2023-02-22T16:03:44.852Z,58.11
2023-02-22T16:06:37.110Z,58.55
2023-02-22T16:09:23.013Z,58.15
2023-02-22T16:12:21.044Z,58.15
2023-02-22T16:14:53.087Z,57.82
2023-02-22T16:17:37.291Z,58.19
2023-02-22T16:20:13.258Z,58.14
2023-02-22T16:22:49.349Z,58.19
2023-02-22T16:25:25.182Z,58.54
2023-02-22T16:28:26.990Z,58.78
2023-02-22T16:30:59.151Z,58.82
2023-02-22T16:33:33.912Z,59.10
2023-02-22T16:36:08.056Z,59.32
2023-02-22T16:38:42.946Z,59.75
2023-02-22T16:41:19.682Z,59.82
2023-02-22T16:43:51.535Z,59.95
2023-02-22T16:46:23.359Z,60.06
2023-02-22T16:48:55.115Z,60.50
2023-02-22T16:51:28.583Z,60.32
2023-02-22T16:54:00.402Z,60.24
2023-02-22T16:56:33.706Z,60.28
2023-02-22T16:59:10.008Z,60.28
2023-02-22T17:01:42.058Z,60.08
2023-02-22T17:04:20.186Z,60.14
2023-02-22T17:06:53.031Z,60.15
2023-02-22T17:09:24.713Z,60.21
2023-02-22T17:11:57.250Z,60.17
2023-02-22T17:14:33.614Z,60.53
2023-02-22T17:17:06.375Z,60.09
2023-02-22T17:19:38.066Z,59.57
2023-02-22T17:22:21.108Z,59.74
2023-02-22T17:24:52.765Z,59.77
2023-02-22T17:27:24.513Z,60.09
2023-02-22T17:29:56.248Z,59.79
2023-02-22T17:32:28.111Z,60.13
2023-02-22T17:34:59.800Z,60.07
2023-02-22T17:37:31.532Z,60.07
2023-02-22T17:40:03.384Z,60.06
2023-02-22T17:42:35.151Z,60.40
2023-02-22T17:45:07.504Z,60.59
2023-02-22T17:47:45.213Z,60.64
2023-02-22T17:50:18.509Z,60.59
2023-02-22T17:52:54.431Z,60.90
2023-02-22T17:55:26.697Z,60.72
2023-02-22T17:57:58.614Z,60.55
2023-02-22T18:00:34.365Z,60.66
2023-02-22T18:03:09.690Z,60.83
2023-02-22T18:05:44.380Z,60.53
2023-02-22T18:08:16.144Z,64.59
2023-02-22T18:10:47.932Z,64.83
2023-02-22T18:13:19.695Z,65.25
2023-02-22T18:15:52.030Z,61.20
2023-02-22T18:18:23.861Z,60.42
2023-02-22T18:20:59.588Z,62.50
2023-02-22T18:23:32.391Z,60.88
2023-02-22T18:26:11.197Z,60.70
2023-02-22T18:28:43.622Z,58.85
2023-02-22T18:31:18.143Z,58.68
2023-02-22T18:33:52.160Z,58.41
2023-02-22T18:36:24.746Z,58.67
2023-02-22T18:38:56.520Z,58.73
2023-02-22T18:41:28.722Z,58.97
2023-02-22T18:44:00.907Z,59.26
2023-02-22T18:46:32.893Z,59.68
2023-02-22T18:49:04.754Z,59.79
2023-02-22T18:51:36.428Z,59.79
2023-02-22T18:54:08.096Z,59.82
2023-02-22T18:56:40.351Z,59.83
2023-02-22T18:59:13.315Z,60.15
2023-02-22T19:01:48.989Z,60.11
2023-02-22T19:04:27.205Z,60.46
2023-02-22T19:06:58.886Z,60.40
2023-02-22T19:09:30.917Z,60.73
2023-02-22T19:12:02.965Z,60.70
2023-02-22T19:14:35.313Z,60.57
2023-02-22T19:17:07.410Z,60.97
2023-02-22T19:19:39.263Z,61.19
2023-02-22T19:22:15.287Z,61.17
2023-02-22T19:24:47.246Z,61.03
2023-02-22T19:27:18.933Z,61.29
2023-02-22T19:29:52.185Z,61.18
2023-02-22T19:32:24.482Z,61.49
2023-02-22T19:35:02.571Z,61.45
2023-02-22T19:37:35.548Z,61.30
2023-02-22T19:40:09.628Z,61.10
2023-02-22T19:42:41.319Z,61.26
2023-02-22T19:45:13.182Z,61.22
2023-02-22T19:47:46.459Z,60.92
2023-02-22T19:50:19.071Z,61.33
2023-02-22T19:52:53.645Z,60.92
2023-02-22T19:55:32.163Z,60.92
2023-02-22T19:58:03.929Z,61.58
2023-02-22T20:00:36.602Z,61.32
2023-02-22T20:03:11.142Z,61.05
2023-02-22T20:05:43.090Z,61.50
2023-02-22T20:08:15.198Z,61.19
2023-02-22T20:10:46.891Z,61.24
2023-02-22T20:13:18.649Z,61.13
2023-02-22T20:15:50.856Z,61.97
2023-02-22T20:18:23.091Z,61.75
2023-02-22T20:20:54.845Z,61.58
2023-02-22T20:23:26.665Z,62.01
2023-02-22T20:25:58.382Z,61.39
2023-02-22T20:28:30.225Z,62.25
2023-02-22T20:31:01.900Z,61.88
2023-02-22T20:33:36.903Z,61.71
2023-02-22T20:36:10.521Z,62.09
2023-02-22T20:38:42.997Z,62.26
2023-02-22T20:41:23.940Z,62.68
2023-02-22T20:43:56.634Z,62.54
2023-02-22T20:46:31.551Z,63.07
2023-02-22T20:49:07.412Z,62.52
2023-02-22T20:51:40.326Z,62.57
2023-02-22T20:54:12.538Z,62.46
2023-02-22T20:56:46.255Z,63.18
2023-02-22T20:59:19.830Z,62.67
2023-02-22T21:01:53.153Z,63.05
2023-02-22T21:04:25.074Z,63.37
2023-02-22T21:06:56.908Z,63.40
2023-02-22T21:09:29.265Z,63.49
2023-02-22T21:12:01.036Z,63.59
2023-02-22T21:14:33.015Z,63.57
2023-02-22T21:17:04.991Z,63.51
2023-02-22T21:19:36.812Z,63.61
2023-02-22T21:22:08.664Z,63.86
2023-02-22T21:24:40.491Z,64.20
2023-02-22T21:27:12.418Z,63.91
2023-02-22T21:29:44.140Z,64.08
2023-02-22T21:32:16.373Z,63.75
2023-02-22T21:34:48.352Z,64.47
2023-02-22T21:37:20.018Z,64.51
2023-02-22T21:39:51.719Z,64.07
2023-02-22T21:42:23.397Z,64.46
2023-02-22T21:44:57.925Z,64.29
2023-02-22T21:47:31.261Z,64.06
2023-02-22T21:50:03.499Z,64.12
2023-02-22T21:52:35.196Z,64.24
2023-02-22T21:55:07.579Z,64.07
2023-02-22T21:57:42.926Z,64.31
2023-02-22T22:00:18.716Z,64.40
2023-02-22T22:02:50.396Z,64.13
2023-02-22T22:05:33.679Z,64.54
2023-02-22T22:08:07.502Z,64.21
2023-02-22T22:10:39.247Z,65.25
2023-02-22T22:13:10.970Z,64.56
2023-02-22T22:15:43.091Z,65.54
2023-02-22T22:18:15.009Z,65.14
2023-02-22T22:20:51.668Z,65.47
2023-02-22T22:23:23.380Z,64.98
2023-02-22T22:26:02.479Z,65.80
2023-02-22T22:28:34.123Z,65.80
2023-02-22T22:31:06.790Z,65.77
2023-02-22T22:33:41.294Z,65.91
2023-02-22T22:36:15.880Z,65.98
2023-02-22T22:38:48.609Z,65.96
2023-02-22T22:41:21.937Z,66.15
2023-02-22T22:43:54.070Z,65.79
2023-02-22T22:46:25.842Z,66.25
2023-02-22T22:48:58.292Z,65.83
2023-02-22T22:51:33.564Z,66.38
2023-02-22T22:54:09.419Z,66.81
2023-02-22T22:56:41.205Z,66.89
2023-02-22T22:59:13.514Z,66.86
2023-02-22T23:01:45.335Z,67.06
2023-02-22T23:04:17.273Z,66.83
2023-02-22T23:06:50.968Z,67.16
2023-02-22T23:09:26.409Z,66.53
2023-02-22T23:12:08.817Z,66.48
2023-02-22T23:14:44.867Z,67.15
2023-02-22T23:17:30.901Z,67.33
2023-02-22T23:20:11.157Z,67.50
2023-02-22T23:22:47.126Z,67.30
2023-02-22T23:25:19.835Z,67.53
2023-02-22T23:27:54.860Z,67.32
2023-02-22T23:30:29.847Z,67.44
2023-02-22T23:33:01.767Z,67.97
2023-02-22T23:35:33.687Z,67.70
2023-02-22T23:38:08.310Z,67.53
2023-02-22T23:40:40.831Z,67.65
2023-02-22T23:43:12.760Z,68.18
2023-02-22T23:45:47.736Z,68.31
2023-02-22T23:48:20.646Z,67.71
2023-02-22T23:50:52.406Z,67.66
2023-02-22T23:53:25.932Z,68.05
2023-02-22T23:55:58.128Z,68.39
2023-02-22T23:58:30.417Z,68.02
